sensor_id;sensor_type;location;lat;lon;timestamp;P1;durP1;ratioP1;P2;durP2;ratioP2
52067;SDS011;60237;52.338;21.228;2022-10-26T00:02:19;9.05;;;5.75;;
52067;SDS011;60237;52.338;21.228;2022-10-26T00:04:46;8.18;;;5.70;;
52067;SDS011;60237;52.338;21.228;2022-10-26T00:07:12;9.90;;;5.15;;
52067;SDS011;60237;52.338;21.228;2022-10-26T00:09:39;8.43;;;5.05;;
52067;SDS011;60237;52.338;21.228;2022-10-26T00:12:05;10.57;;;5.57;;
52067;SDS011;60237;52.338;21.228;2022-10-26T00:14:32;9.43;;;4.97;;
52067;SDS011;60237;52.338;21.228;2022-10-26T00:16:59;6.38;;;4.85;;
52067;SDS011;60237;52.338;21.228;2022-10-26T00:19:25;8.35;;;5.45;;
52067;SDS011;60237;52.338;21.228;2022-10-26T00:21:52;7.45;;;5.22;;
52067;SDS011;60237;52.338;21.228;2022-10-26T00:24:18;7.20;;;5.28;;
52067;SDS011;60237;52.338;21.228;2022-10-26T00:26:45;7.32;;;4.93;;
52067;SDS011;60237;52.338;21.228;2022-10-26T00:29:12;8.40;;;5.22;;
52067;SDS011;60237;52.338;21.228;2022-10-26T00:31:39;10.05;;;5.35;;
52067;SDS011;60237;52.338;21.228;2022-10-26T00:34:05;7.38;;;4.97;;
52067;SDS011;60237;52.338;21.228;2022-10-26T00:36:32;9.98;;;5.00;;
52067;SDS011;60237;52.338;21.228;2022-10-26T00:38:58;6.85;;;4.60;;
52067;SDS011;60237;52.338;21.228;2022-10-26T00:41:26;7.00;;;4.95;;
52067;SDS011;60237;52.338;21.228;2022-10-26T00:43:54;7.63;;;4.72;;
52067;SDS011;60237;52.338;21.228;2022-10-26T00:46:21;7.07;;;4.93;;
52067;SDS011;60237;52.338;21.228;2022-10-26T00:48:52;9.90;;;5.00;;
52067;SDS011;60237;52.338;21.228;2022-10-26T00:53:50;9.05;;;5.13;;
52067;SDS011;60237;52.338;21.228;2022-10-26T00:56:17;7.93;;;5.03;;
52067;SDS011;60237;52.338;21.228;2022-10-26T00:58:44;8.10;;;4.47;;
52067;SDS011;60237;52.338;21.228;2022-10-26T01:01:10;7.30;;;4.82;;
52067;SDS011;60237;52.338;21.228;2022-10-26T01:03:37;6.82;;;4.10;;
52067;SDS011;60237;52.338;21.228;2022-10-26T01:06:04;7.72;;;4.75;;
52067;SDS011;60237;52.338;21.228;2022-10-26T01:08:31;7.63;;;4.60;;
52067;SDS011;60237;52.338;21.228;2022-10-26T01:10:58;7.65;;;5.13;;
52067;SDS011;60237;52.338;21.228;2022-10-26T01:13:25;6.53;;;4.63;;
52067;SDS011;60237;52.338;21.228;2022-10-26T01:18:43;6.65;;;4.50;;
52067;SDS011;60237;52.338;21.228;2022-10-26T01:21:25;7.60;;;4.82;;
52067;SDS011;60237;52.338;21.228;2022-10-26T01:29:17;6.43;;;4.20;;
52067;SDS011;60237;52.338;21.228;2022-10-26T01:31:55;7.88;;;4.22;;
52067;SDS011;60237;52.338;21.228;2022-10-26T01:34:33;6.28;;;4.72;;
52067;SDS011;60237;52.338;21.228;2022-10-26T01:37:04;6.97;;;4.40;;
52067;SDS011;60237;52.338;21.228;2022-10-26T01:39:36;8.45;;;5.18;;
52067;SDS011;60237;52.338;21.228;2022-10-26T01:42:04;7.53;;;4.30;;
52067;SDS011;60237;52.338;21.228;2022-10-26T01:44:35;10.20;;;4.47;;
52067;SDS011;60237;52.338;21.228;2022-10-26T01:47:08;5.95;;;4.13;;
52067;SDS011;60237;52.338;21.228;2022-10-26T01:49:35;8.20;;;4.00;;
52067;SDS011;60237;52.338;21.228;2022-10-26T01:52:03;6.30;;;4.07;;
52067;SDS011;60237;52.338;21.228;2022-10-26T01:54:30;7.95;;;4.63;;
52067;SDS011;60237;52.338;21.228;2022-10-26T01:56:58;7.68;;;4.63;;
52067;SDS011;60237;52.338;21.228;2022-10-26T01:59:47;6.70;;;4.78;;
52067;SDS011;60237;52.338;21.228;2022-10-26T02:02:41;10.60;;;4.45;;
52067;SDS011;60237;52.338;21.228;2022-10-26T02:07:51;14.43;;;4.45;;
52067;SDS011;60237;52.338;21.228;2022-10-26T02:12:59;8.93;;;4.72;;
52067;SDS011;60237;52.338;21.228;2022-10-26T02:18:04;6.35;;;4.35;;
52067;SDS011;60237;52.338;21.228;2022-10-26T02:20:33;7.35;;;4.35;;
52067;SDS011;60237;52.338;21.228;2022-10-26T02:23:02;5.45;;;4.00;;
52067;SDS011;60237;52.338;21.228;2022-10-26T02:25:30;6.50;;;4.53;;
52067;SDS011;60237;52.338;21.228;2022-10-26T02:27:59;6.47;;;4.20;;
52067;SDS011;60237;52.338;21.228;2022-10-26T02:30:26;7.43;;;4.32;;
52067;SDS011;60237;52.338;21.228;2022-10-26T02:32:54;6.13;;;4.15;;
52067;SDS011;60237;52.338;21.228;2022-10-26T02:35:23;6.43;;;4.32;;
52067;SDS011;60237;52.338;21.228;2022-10-26T02:37:51;7.60;;;3.92;;
52067;SDS011;60237;52.338;21.228;2022-10-26T02:40:19;6.13;;;4.45;;
52067;SDS011;60237;52.338;21.228;2022-10-26T02:42:47;6.45;;;4.40;;
52067;SDS011;60237;52.338;21.228;2022-10-26T02:45:16;7.32;;;4.50;;
52067;SDS011;60237;52.338;21.228;2022-10-26T02:47:44;6.65;;;4.38;;
52067;SDS011;60237;52.338;21.228;2022-10-26T02:50:11;7.28;;;4.03;;
52067;SDS011;60237;52.338;21.228;2022-10-26T02:55:11;6.95;;;4.65;;
52067;SDS011;60237;52.338;21.228;2022-10-26T02:57:40;5.82;;;4.13;;
52067;SDS011;60237;52.338;21.228;2022-10-26T03:00:09;9.20;;;4.28;;
52067;SDS011;60237;52.338;21.228;2022-10-26T03:02:42;6.00;;;4.38;;
52067;SDS011;60237;52.338;21.228;2022-10-26T03:07:40;7.15;;;4.28;;
52067;SDS011;60237;52.338;21.228;2022-10-26T03:10:06;7.28;;;3.47;;
52067;SDS011;60237;52.338;21.228;2022-10-26T03:12:33;6.45;;;4.53;;
52067;SDS011;60237;52.338;21.228;2022-10-26T03:14:59;6.80;;;4.22;;
52067;SDS011;60237;52.338;21.228;2022-10-26T03:17:26;7.20;;;4.38;;
52067;SDS011;60237;52.338;21.228;2022-10-26T03:19:52;5.97;;;3.63;;
52067;SDS011;60237;52.338;21.228;2022-10-26T03:22:20;6.28;;;4.03;;
52067;SDS011;60237;52.338;21.228;2022-10-26T03:24:46;7.22;;;4.60;;
52067;SDS011;60237;52.338;21.228;2022-10-26T03:27:13;7.75;;;4.05;;
52067;SDS011;60237;52.338;21.228;2022-10-26T03:29:40;8.40;;;4.07;;
52067;SDS011;60237;52.338;21.228;2022-10-26T03:32:06;5.00;;;3.80;;
52067;SDS011;60237;52.338;21.228;2022-10-26T03:34:33;5.70;;;4.40;;
52067;SDS011;60237;52.338;21.228;2022-10-26T03:36:59;8.52;;;3.70;;
52067;SDS011;60237;52.338;21.228;2022-10-26T03:39:26;7.60;;;4.20;;
52067;SDS011;60237;52.338;21.228;2022-10-26T03:41:52;7.70;;;4.32;;
52067;SDS011;60237;52.338;21.228;2022-10-26T03:44:21;5.07;;;3.65;;
52067;SDS011;60237;52.338;21.228;2022-10-26T03:46:47;5.55;;;4.03;;
52067;SDS011;60237;52.338;21.228;2022-10-26T03:49:14;5.13;;;4.00;;
52067;SDS011;60237;52.338;21.228;2022-10-26T03:51:40;5.57;;;4.35;;
52067;SDS011;60237;52.338;21.228;2022-10-26T03:54:07;5.82;;;4.10;;
52067;SDS011;60237;52.338;21.228;2022-10-26T03:56:33;6.13;;;3.80;;
52067;SDS011;60237;52.338;21.228;2022-10-26T03:59:00;8.00;;;4.50;;
52067;SDS011;60237;52.338;21.228;2022-10-26T04:01:26;5.80;;;4.03;;
52067;SDS011;60237;52.338;21.228;2022-10-26T04:03:53;7.15;;;4.25;;
52067;SDS011;60237;52.338;21.228;2022-10-26T04:06:19;6.13;;;3.90;;
52067;SDS011;60237;52.338;21.228;2022-10-26T04:08:46;5.07;;;4.10;;
52067;SDS011;60237;52.338;21.228;2022-10-26T04:11:12;8.68;;;4.50;;
52067;SDS011;60237;52.338;21.228;2022-10-26T04:13:39;7.22;;;3.85;;
52067;SDS011;60237;52.338;21.228;2022-10-26T04:16:05;5.57;;;3.85;;
52067;SDS011;60237;52.338;21.228;2022-10-26T04:18:32;7.20;;;3.75;;
52067;SDS011;60237;52.338;21.228;2022-10-26T04:21:01;5.70;;;4.22;;
52067;SDS011;60237;52.338;21.228;2022-10-26T04:23:28;5.07;;;4.20;;
52067;SDS011;60237;52.338;21.228;2022-10-26T04:25:54;5.15;;;4.00;;
52067;SDS011;60237;52.338;21.228;2022-10-26T04:28:21;5.45;;;3.80;;
52067;SDS011;60237;52.338;21.228;2022-10-26T04:30:47;5.68;;;3.92;;
52067;SDS011;60237;52.338;21.228;2022-10-26T04:33:14;5.47;;;4.13;;
52067;SDS011;60237;52.338;21.228;2022-10-26T04:35:40;5.50;;;4.00;;
52067;SDS011;60237;52.338;21.228;2022-10-26T04:38:08;5.50;;;3.95;;
52067;SDS011;60237;52.338;21.228;2022-10-26T04:40:35;6.15;;;4.20;;
52067;SDS011;60237;52.338;21.228;2022-10-26T04:43:01;5.55;;;3.78;;
52067;SDS011;60237;52.338;21.228;2022-10-26T04:45:28;5.85;;;4.18;;
52067;SDS011;60237;52.338;21.228;2022-10-26T04:48:00;7.85;;;4.07;;
52067;SDS011;60237;52.338;21.228;2022-10-26T04:50:26;6.63;;;4.20;;
52067;SDS011;60237;52.338;21.228;2022-10-26T04:52:53;4.43;;;3.70;;
52067;SDS011;60237;52.338;21.228;2022-10-26T04:55:20;5.97;;;4.05;;
52067;SDS011;60237;52.338;21.228;2022-10-26T04:57:46;5.18;;;3.85;;
52067;SDS011;60237;52.338;21.228;2022-10-26T05:00:13;5.43;;;4.13;;
52067;SDS011;60237;52.338;21.228;2022-10-26T05:02:40;5.28;;;3.72;;
52067;SDS011;60237;52.338;21.228;2022-10-26T05:05:07;5.70;;;4.15;;
52067;SDS011;60237;52.338;21.228;2022-10-26T05:07:39;5.30;;;4.32;;
52067;SDS011;60237;52.338;21.228;2022-10-26T05:10:06;5.93;;;3.58;;
52067;SDS011;60237;52.338;21.228;2022-10-26T05:12:32;6.95;;;4.30;;
52067;SDS011;60237;52.338;21.228;2022-10-26T05:14:59;4.78;;;3.78;;
52067;SDS011;60237;52.338;21.228;2022-10-26T05:17:30;5.55;;;3.58;;
52067;SDS011;60237;52.338;21.228;2022-10-26T05:19:56;4.93;;;3.83;;
52067;SDS011;60237;52.338;21.228;2022-10-26T05:22:25;9.10;;;3.85;;
52067;SDS011;60237;52.338;21.228;2022-10-26T05:24:52;7.13;;;4.15;;
52067;SDS011;60237;52.338;21.228;2022-10-26T05:27:18;7.55;;;3.97;;
52067;SDS011;60237;52.338;21.228;2022-10-26T05:29:45;11.68;;;4.15;;
52067;SDS011;60237;52.338;21.228;2022-10-26T05:32:11;10.10;;;4.57;;
52067;SDS011;60237;52.338;21.228;2022-10-26T05:34:38;18.08;;;4.10;;
52067;SDS011;60237;52.338;21.228;2022-10-26T05:37:06;17.30;;;4.32;;
52067;SDS011;60237;52.338;21.228;2022-10-26T05:39:33;8.43;;;4.32;;
52067;SDS011;60237;52.338;21.228;2022-10-26T05:41:59;14.27;;;4.97;;
52067;SDS011;60237;52.338;21.228;2022-10-26T05:44:26;19.90;;;4.72;;
52067;SDS011;60237;52.338;21.228;2022-10-26T05:46:53;11.80;;;4.25;;
52067;SDS011;60237;52.338;21.228;2022-10-26T05:49:19;9.30;;;4.13;;
52067;SDS011;60237;52.338;21.228;2022-10-26T05:51:46;14.43;;;4.28;;
52067;SDS011;60237;52.338;21.228;2022-10-26T05:54:12;8.45;;;4.25;;
52067;SDS011;60237;52.338;21.228;2022-10-26T05:56:39;8.52;;;4.05;;
52067;SDS011;60237;52.338;21.228;2022-10-26T05:59:12;8.07;;;4.38;;
52067;SDS011;60237;52.338;21.228;2022-10-26T06:07:11;8.73;;;4.40;;
52067;SDS011;60237;52.338;21.228;2022-10-26T06:09:38;15.50;;;4.82;;
52067;SDS011;60237;52.338;21.228;2022-10-26T06:12:05;11.70;;;4.93;;
52067;SDS011;60237;52.338;21.228;2022-10-26T06:14:33;19.88;;;4.50;;
52067;SDS011;60237;52.338;21.228;2022-10-26T06:17:11;22.38;;;5.38;;
52067;SDS011;60237;52.338;21.228;2022-10-26T06:19:45;18.00;;;4.95;;
52067;SDS011;60237;52.338;21.228;2022-10-26T06:22:27;22.52;;;5.30;;
52067;SDS011;60237;52.338;21.228;2022-10-26T06:25:10;14.32;;;5.22;;
52067;SDS011;60237;52.338;21.228;2022-10-26T06:30:17;10.88;;;4.60;;
52067;SDS011;60237;52.338;21.228;2022-10-26T06:32:45;16.05;;;5.03;;
52067;SDS011;60237;52.338;21.228;2022-10-26T06:35:21;14.75;;;5.55;;
52067;SDS011;60237;52.338;21.228;2022-10-26T06:37:50;19.67;;;5.45;;
52067;SDS011;60237;52.338;21.228;2022-10-26T06:40:18;14.05;;;5.20;;
52067;SDS011;60237;52.338;21.228;2022-10-26T06:42:45;9.00;;;5.35;;
52067;SDS011;60237;52.338;21.228;2022-10-26T06:45:12;14.05;;;4.78;;
52067;SDS011;60237;52.338;21.228;2022-10-26T06:50:45;16.02;;;4.70;;
52067;SDS011;60237;52.338;21.228;2022-10-26T06:55:41;14.82;;;5.45;;
52067;SDS011;60237;52.338;21.228;2022-10-26T06:58:12;15.27;;;5.03;;
52067;SDS011;60237;52.338;21.228;2022-10-26T07:00:40;8.57;;;5.07;;
52067;SDS011;60237;52.338;21.228;2022-10-26T07:03:07;10.15;;;5.25;;
52067;SDS011;60237;52.338;21.228;2022-10-26T07:05:34;11.02;;;4.82;;
52067;SDS011;60237;52.338;21.228;2022-10-26T07:08:01;15.57;;;5.00;;
52067;SDS011;60237;52.338;21.228;2022-10-26T07:10:27;11.98;;;5.45;;
52067;SDS011;60237;52.338;21.228;2022-10-26T07:14:28;16.90;;;5.65;;
52067;SDS011;60237;52.338;21.228;2022-10-26T07:16:55;13.02;;;4.97;;
52067;SDS011;60237;52.338;21.228;2022-10-26T07:19:22;11.88;;;5.63;;
52067;SDS011;60237;52.338;21.228;2022-10-26T07:21:49;15.40;;;6.43;;
52067;SDS011;60237;52.338;21.228;2022-10-26T07:24:15;15.20;;;5.47;;
52067;SDS011;60237;52.338;21.228;2022-10-26T07:26:42;14.15;;;5.45;;
52067;SDS011;60237;52.338;21.228;2022-10-26T07:29:08;9.57;;;5.38;;
52067;SDS011;60237;52.338;21.228;2022-10-26T07:31:35;13.18;;;5.55;;
52067;SDS011;60237;52.338;21.228;2022-10-26T07:34:01;13.35;;;4.78;;
52067;SDS011;60237;52.338;21.228;2022-10-26T07:36:28;11.63;;;5.55;;
52067;SDS011;60237;52.338;21.228;2022-10-26T07:38:54;11.23;;;5.20;;
52067;SDS011;60237;52.338;21.228;2022-10-26T07:41:21;13.13;;;5.25;;
52067;SDS011;60237;52.338;21.228;2022-10-26T07:43:47;12.15;;;4.63;;
52067;SDS011;60237;52.338;21.228;2022-10-26T07:46:16;12.10;;;5.03;;
52067;SDS011;60237;52.338;21.228;2022-10-26T07:48:43;14.52;;;5.80;;
52067;SDS011;60237;52.338;21.228;2022-10-26T07:51:14;19.33;;;5.22;;
52067;SDS011;60237;52.338;21.228;2022-10-26T07:53:41;17.15;;;5.35;;
52067;SDS011;60237;52.338;21.228;2022-10-26T07:56:08;15.15;;;5.25;;
52067;SDS011;60237;52.338;21.228;2022-10-26T07:58:35;12.43;;;5.05;;
52067;SDS011;60237;52.338;21.228;2022-10-26T08:01:08;15.05;;;5.05;;
52067;SDS011;60237;52.338;21.228;2022-10-26T08:03:35;12.63;;;4.72;;
52067;SDS011;60237;52.338;21.228;2022-10-26T08:06:02;13.52;;;4.85;;
52067;SDS011;60237;52.338;21.228;2022-10-26T08:08:30;10.30;;;5.20;;
52067;SDS011;60237;52.338;21.228;2022-10-26T08:10:57;13.93;;;5.13;;
52067;SDS011;60237;52.338;21.228;2022-10-26T08:13:24;11.45;;;4.97;;
52067;SDS011;60237;52.338;21.228;2022-10-26T08:15:57;12.38;;;4.95;;
52067;SDS011;60237;52.338;21.228;2022-10-26T08:18:23;13.52;;;5.47;;
52067;SDS011;60237;52.338;21.228;2022-10-26T08:20:50;14.32;;;5.18;;
52067;SDS011;60237;52.338;21.228;2022-10-26T08:23:16;12.45;;;5.00;;
52067;SDS011;60237;52.338;21.228;2022-10-26T08:25:43;15.80;;;5.55;;
52067;SDS011;60237;52.338;21.228;2022-10-26T08:28:09;12.90;;;5.15;;
52067;SDS011;60237;52.338;21.228;2022-10-26T08:30:36;16.40;;;5.10;;
52067;SDS011;60237;52.338;21.228;2022-10-26T08:33:03;12.18;;;4.50;;
52067;SDS011;60237;52.338;21.228;2022-10-26T08:35:30;15.40;;;5.90;;
52067;SDS011;60237;52.338;21.228;2022-10-26T08:37:57;12.63;;;4.93;;
52067;SDS011;60237;52.338;21.228;2022-10-26T08:40:25;11.80;;;5.60;;
52067;SDS011;60237;52.338;21.228;2022-10-26T08:42:54;9.52;;;4.60;;
52067;SDS011;60237;52.338;21.228;2022-10-26T08:45:27;16.65;;;5.07;;
52067;SDS011;60237;52.338;21.228;2022-10-26T08:48:03;15.73;;;5.63;;
52067;SDS011;60237;52.338;21.228;2022-10-26T08:50:31;14.35;;;5.47;;
52067;SDS011;60237;52.338;21.228;2022-10-26T08:53:10;16.73;;;6.72;;
52067;SDS011;60237;52.338;21.228;2022-10-26T08:55:41;15.40;;;5.30;;
52067;SDS011;60237;52.338;21.228;2022-10-26T08:58:14;14.18;;;5.68;;
52067;SDS011;60237;52.338;21.228;2022-10-26T09:00:41;10.65;;;5.18;;
52067;SDS011;60237;52.338;21.228;2022-10-26T09:03:13;14.68;;;5.72;;
52067;SDS011;60237;52.338;21.228;2022-10-26T09:05:53;13.05;;;5.38;;
52067;SDS011;60237;52.338;21.228;2022-10-26T09:10:58;10.15;;;5.25;;
52067;SDS011;60237;52.338;21.228;2022-10-26T09:16:29;15.75;;;6.15;;
52067;SDS011;60237;52.338;21.228;2022-10-26T09:19:01;13.73;;;6.57;;
52067;SDS011;60237;52.338;21.228;2022-10-26T09:21:46;10.93;;;5.57;;
52067;SDS011;60237;52.338;21.228;2022-10-26T09:24:15;12.38;;;5.60;;
52067;SDS011;60237;52.338;21.228;2022-10-26T09:29:11;16.05;;;5.80;;
52067;SDS011;60237;52.338;21.228;2022-10-26T09:31:39;13.20;;;5.90;;
52067;SDS011;60237;52.338;21.228;2022-10-26T09:34:15;8.25;;;5.22;;
52067;SDS011;60237;52.338;21.228;2022-10-26T09:36:42;15.95;;;5.40;;
52067;SDS011;60237;52.338;21.228;2022-10-26T09:39:20;9.38;;;5.63;;
52067;SDS011;60237;52.338;21.228;2022-10-26T09:41:52;19.33;;;5.43;;
52067;SDS011;60237;52.338;21.228;2022-10-26T09:49:17;12.63;;;5.03;;
52067;SDS011;60237;52.338;21.228;2022-10-26T09:51:46;16.15;;;5.57;;
52067;SDS011;60237;52.338;21.228;2022-10-26T09:54:14;13.05;;;5.13;;
52067;SDS011;60237;52.338;21.228;2022-10-26T09:56:46;10.38;;;5.40;;
52067;SDS011;60237;52.338;21.228;2022-10-26T09:59:14;15.55;;;5.30;;
52067;SDS011;60237;52.338;21.228;2022-10-26T10:01:43;12.02;;;5.40;;
52067;SDS011;60237;52.338;21.228;2022-10-26T10:06:39;8.07;;;5.00;;
52067;SDS011;60237;52.338;21.228;2022-10-26T10:09:08;9.75;;;5.03;;
52067;SDS011;60237;52.338;21.228;2022-10-26T10:11:40;11.45;;;5.53;;
52067;SDS011;60237;52.338;21.228;2022-10-26T10:14:08;11.10;;;5.60;;
52067;SDS011;60237;52.338;21.228;2022-10-26T10:16:39;10.85;;;5.57;;
52067;SDS011;60237;52.338;21.228;2022-10-26T10:19:09;7.78;;;5.40;;
